Saint Clairsville, Ohio
Current Conditions -  °F | °C
As of 4:53 PM on Thursday 23 Oct 2014 (Local Time) from KHLG Reporting Station
Broken Clouds Broken Clouds  
Wind Chill: 58°   Ceiling: 3700
Heat Index: 58°   Visibility: 10mi
Dew Point: 43°   Wind: 9mph
Humidity: 58%   Direction: 290°WNW
Pressure: 30.08"   Gusts: NA
Location:  40.08°N, 80.9°W
Report Text: KHLG 232053Z 29008KT 10SM BKN037 14/06 A3008 RMK AO2 SLP189 T01440061 56012
Loading
Personal Weather Stations






























Interactive Weather Map
Tropical Storm Tracking
New forecast layout! Learn more

10-Day Weather Forecast

Advertisements
Track Severe Weather on mobile